El Dorado Hills, CA (95762)

11:46 PM PDT on August 31, 2015 (GMT -0700)
El Dorado Hills | | Change Station
CLOSE
Current Station
Personal Weather Station
Location: El Dorado Hills, CA
Elevation: 705 ft
Nearby Weather Stations

Elev 705 ft 38.70 °N, 121.07 °W | Updated 4 minutes ago

Clear
Clear
65.2 °F
Feels Like 65.2 °F
N
1.3
Wind Variable Wind from SW
Gusts 2.3 mph

Today
High -- | Low -- °F
--% Chance of Precip.
Yesterday
High -- | Low -- °F
Precip. -- in
6:32 AM 7:36 PM
Waning Gibbous, 91% visible
Pressure 29.90 in
Visibility 10.0 miles
Clouds Clear
Dew Point 53 °F
Humidity 64%
Rainfall Not available.
Snow Depth Not available.
UV 0 out of 12
Pollen 8.20 out of 12
Air Quality Not available.
Flu Activity Not available.
METAR KAUN 010635Z AUTO 09003KT 10SM CLR 21/06 A2990 RMK AO1
Pressure 29.90 in
Visibility 10.0 miles
Clouds Clear
Dew Point 53 °F
Humidity 64%
Rainfall Not available.
Snow Depth Not available.
UV 0 out of 12
Pollen 8.20 out of 12
Air Quality Not available.
Flu Activity Not available.
METAR KAUN 010635Z AUTO 09003KT 10SM CLR 21/06 A2990 RMK AO1

10-Day Weather Forecast

×

Almanac

Astronomy

Aug. 31, 2015 Rise Set
Actual Time
Civil Twilight
Nautical Twilight
Astronomical Twilight
Moon
Length of Visible Light
Length of Day
Tomorrow will be .
, % of the Moon is Illuminated

Today's Extremes

State Highs State Lows

Community

WunderPhotos

Upload Photos

1,851,488 photos uploaded!

WunderBlogs® & News

Nearby

Air Quality

  Air Quality AQ Index Pollutant
Not available.

Snow Depth

Station Depth Elevation

Earthquake Activity

City Distance Mag. Time & Date
Minimum magnitude displayed is 2.5.

Coastal Water Temperatures

Place Temperature

Stations

Nearby Weather Stations

Station Location Temp. Windchill Dew Point Humidity Wind Precip. Elev Updated Type